Time;durP1;ratioP1;P1;durP2;ratioP2;P2;SDS_P1;SDS_P2;PMS_P1;PMS_P2;Temp;Humidity;BMP_temperature;BMP_pressure;BME280_temperature;BME280_humidity;BME280_pressure;Samples;Min_cycle;Max_cycle;Signal;HPM_P1;HPM_P2
2023/12/22 00:02:02;;;;;;;0.50;0.50;;;4.90;99.90;;;;;;6295872;22;20174;-88
2023/12/22 00:04:51;;;;;;;0.50;0.50;;;5.00;99.90;;;;;;6330089;22;20163;-84
2023/12/22 00:12:33;;;;;;;1.13;1.02;;;5.00;99.90;;;;;;6251092;22;20204;-89
2023/12/22 00:15:02;;;;;;;2.05;1.08;;;5.10;99.90;;;;;;6321676;22;20212;-89
2023/12/22 00:17:35;;;;;;;1.08;1.08;;;4.90;99.90;;;;;;6321669;22;20371;-85
2023/12/22 00:20:23;;;;;;;0.50;0.50;;;4.80;99.90;;;;;;6323040;22;20184;-89
2023/12/22 00:22:53;;;;;;;1.70;1.65;;;4.60;99.90;;;;;;6320953;22;20203;-89
2023/12/22 00:25:22;;;;;;;0.50;0.50;;;4.80;99.90;;;;;;6294661;22;20297;-84
2023/12/22 00:27:50;;;;;;;1.00;1.00;;;4.80;99.90;;;;;;6320729;22;20718;-87
2023/12/22 00:30:18;;;;;;;0.98;0.98;;;4.70;99.90;;;;;;6293093;22;20205;-89
2023/12/22 00:32:51;;;;;;;0.60;0.60;;;4.90;99.90;;;;;;6320698;22;20178;-87
2023/12/22 00:35:24;;;;;;;2.55;2.45;;;4.90;99.90;;;;;;6318100;22;20172;-85
2023/12/22 00:37:52;;;;;;;0.50;0.50;;;4.50;99.90;;;;;;6293496;22;20179;-86
2023/12/22 00:40:22;;;;;;;0.60;0.60;;;4.30;99.90;;;;;;6293420;22;20178;-89
2023/12/22 00:42:49;;;;;;;6.57;1.90;;;4.30;99.90;;;;;;6324000;22;20174;-88
2023/12/22 00:45:33;;;;;;;0.50;0.50;;;4.40;99.90;;;;;;6323380;22;20170;-89
2023/12/22 00:48:10;;;;;;;0.70;0.70;;;4.40;99.90;;;;;;6299972;22;20222;-84
2023/12/22 00:50:45;;;;;;;0.98;0.85;;;4.40;99.90;;;;;;6324768;22;20198;-90
2023/12/22 00:53:18;;;;;;;0.50;0.50;;;4.50;99.90;;;;;;6324125;22;20283;-90
2023/12/22 00:56:02;;;;;;;0.70;0.70;;;4.50;99.90;;;;;;6325000;22;20182;-89
2023/12/22 00:58:41;;;;;;;0.50;0.50;;;4.40;99.90;;;;;;6299702;22;20176;-84
2023/12/22 01:01:22;;;;;;;1.05;1.05;;;4.30;99.90;;;;;;6300533;22;20228;-87
2023/12/22 01:03:54;;;;;;;0.50;0.50;;;4.20;99.90;;;;;;6323928;22;20165;-89
2023/12/22 01:06:24;;;;;;;1.05;1.05;;;4.30;99.90;;;;;;6326899;22;20166;-87
2023/12/22 01:08:54;;;;;;;2.88;2.67;;;4.40;99.90;;;;;;6329983;22;20180;-87
2023/12/22 01:11:32;;;;;;;0.70;0.70;;;4.30;99.90;;;;;;6277786;22;20170;-85
2023/12/22 01:14:09;;;;;;;0.50;0.50;;;4.40;99.90;;;;;;6326966;22;20173;-89
2023/12/22 01:16:54;;;;;;;1.00;1.00;;;4.40;99.90;;;;;;6321148;22;20204;-88
2023/12/22 01:19:29;;;;;;;0.50;0.50;;;4.40;99.90;;;;;;6326468;22;20162;-86
2023/12/22 01:22:02;;;;;;;4.03;2.03;;;4.40;99.90;;;;;;6323750;22;20196;-86
2023/12/22 01:24:49;;;;;;;1.80;1.23;;;4.50;99.90;;;;;;6303732;22;20225;-89
2023/12/22 01:27:19;;;;;;;1.95;1.63;;;4.40;99.90;;;;;;6328873;22;20172;-88
2023/12/22 01:30:01;;;;;;;0.80;0.80;;;4.50;99.90;;;;;;6301329;22;20213;-88
2023/12/22 01:32:34;;;;;;;0.45;0.45;;;4.40;99.90;;;;;;6329142;22;20177;-86
2023/12/22 01:35:09;;;;;;;0.55;0.55;;;4.30;99.90;;;;;;6301210;22;20170;-88
2023/12/22 01:37:40;;;;;;;0.50;0.50;;;4.40;99.90;;;;;;6303023;22;20165;-85
2023/12/22 01:40:28;;;;;;;0.70;0.70;;;4.20;99.90;;;;;;6301302;22;20231;-88
2023/12/22 01:43:04;;;;;;;0.55;0.55;;;4.10;99.90;;;;;;6343995;22;20176;-89
2023/12/22 01:45:56;;;;;;;0.50;0.50;;;4.10;99.90;;;;;;6280609;22;21588;-89
2023/12/22 01:48:27;;;;;;;0.50;0.50;;;4.30;99.90;;;;;;6365811;22;20165;-86
2023/12/22 01:51:00;;;;;;;3.90;1.70;;;4.20;99.90;;;;;;6361719;22;20517;-90
2023/12/22 01:53:44;;;;;;;2.10;1.75;;;4.20;99.90;;;;;;6362785;22;20166;-87
2023/12/22 01:59:00;;;;;;;1.05;1.05;;;4.20;99.90;;;;;;6321859;22;20225;-86
2023/12/22 02:01:53;;;;;;;0.60;0.60;;;4.10;99.90;;;;;;6250809;22;20208;-85
2023/12/22 02:07:08;;;;;;;0.50;0.50;;;3.80;99.90;;;;;;6172604;22;20180;-89
2023/12/22 02:09:49;;;;;;;0.50;0.50;;;3.80;99.90;;;;;;6172659;23;20241;-87
2023/12/22 02:12:26;;;;;;;0.70;0.70;;;3.90;99.90;;;;;;6174970;23;20162;-89
2023/12/22 02:15:10;;;;;;;0.50;0.50;;;3.90;99.90;;;;;;6151010;23;20203;-87
2023/12/22 02:18:33;;;;;;;1.10;0.90;;;3.90;99.90;;;;;;6167829;23;20393;-85
2023/12/22 02:21:20;;;;;;;0.50;0.50;;;4.00;99.90;;;;;;6166159;23;20192;-86
2023/12/22 02:24:12;;;;;;;2.92;1.75;;;4.00;99.90;;;;;;6130391;23;20203;-87
2023/12/22 02:26:55;;;;;;;1.35;1.23;;;3.70;99.90;;;;;;6165115;23;20186;-89
2023/12/22 02:29:30;;;;;;;1.23;1.23;;;3.60;99.90;;;;;;6135494;23;20209;-86
2023/12/22 02:32:06;;;;;;;0.50;0.50;;;3.90;99.90;;;;;;6135677;23;20186;-84
2023/12/22 02:34:37;;;;;;;0.50;0.50;;;3.50;99.90;;;;;;6083698;23;20229;-86
2023/12/22 02:37:14;;;;;;;3.40;2.50;;;3.50;99.90;;;;;;6131545;23;20183;-84
2023/12/22 02:39:47;;;;;;;0.50;0.50;;;3.40;99.90;;;;;;6137506;23;20236;-85
2023/12/22 02:42:29;;;;;;;0.70;0.70;;;3.20;99.90;;;;;;6112017;23;20167;-85
2023/12/22 02:45:12;;;;;;;0.70;0.70;;;3.10;99.90;;;;;;6135183;23;20166;-87
2023/12/22 02:47:47;;;;;;;0.50;0.50;;;2.80;99.90;;;;;;6137106;23;20216;-88
2023/12/22 02:50:30;;;;;;;0.68;0.68;;;2.70;99.90;;;;;;6107437;23;20213;-82
2023/12/22 02:52:58;;;;;;;0.50;0.50;;;2.90;99.90;;;;;;6109653;23;20175;-84
2023/12/22 02:55:31;;;;;;;0.82;0.82;;;2.60;99.90;;;;;;6138022;23;20275;-88
2023/12/22 02:58:05;;;;;;;0.60;0.60;;;2.80;99.90;;;;;;6115448;23;20200;-86
2023/12/22 03:00:38;;;;;;;0.80;0.50;;;2.80;99.90;;;;;;6142504;22;20364;-87
2023/12/22 03:03:13;;;;;;;0.65;0.65;;;2.80;99.90;;;;;;6149099;22;20201;-87
2023/12/22 03:05:40;;;;;;;0.50;0.50;;;2.90;99.90;;;;;;6123142;22;20166;-88
2023/12/22 03:08:12;;;;;;;0.70;0.70;;;3.10;99.90;;;;;;6211380;22;20211;-86
2023/12/22 03:10:43;;;;;;;0.50;0.50;;;3.20;99.90;;;;;;6246242;22;20543;-85
2023/12/22 03:13:11;;;;;;;0.50;0.50;;;3.20;99.90;;;;;;6295473;22;20188;-86
2023/12/22 03:15:47;;;;;;;0.50;0.50;;;3.10;99.90;;;;;;6293576;22;20167;-87
2023/12/22 03:18:17;;;;;;;0.88;0.88;;;3.10;99.90;;;;;;6295653;22;20190;-86
2023/12/22 03:20:47;;;;;;;0.50;0.50;;;3.60;99.90;;;;;;6268508;22;20248;-86
2023/12/22 03:23:20;;;;;;;0.50;0.50;;;3.00;99.90;;;;;;6269268;22;20206;-86
2023/12/22 03:25:52;;;;;;;0.50;0.50;;;3.10;99.90;;;;;;6293486;22;20151;-87
2023/12/22 03:28:24;;;;;;;0.50;0.50;;;2.70;99.90;;;;;;6293180;22;20232;-88
2023/12/22 03:30:59;;;;;;;0.50;0.50;;;2.60;99.90;;;;;;6293300;22;20202;-89
2023/12/22 03:33:28;;;;;;;0.50;0.50;;;2.60;99.90;;;;;;6266874;22;20179;-86
2023/12/22 03:36:08;;;;;;;0.50;0.50;;;1.90;99.90;;;;;;6291937;22;20306;-88
2023/12/22 03:38:55;;;;;;;0.40;0.40;;;2.30;99.90;;;;;;6296107;22;20205;-88
2023/12/22 03:41:34;;;;;;;0.50;0.50;;;2.30;99.90;;;;;;6250268;22;20198;-87
2023/12/22 03:44:06;;;;;;;0.60;0.60;;;2.10;99.90;;;;;;6267507;22;20209;-85
2023/12/22 03:46:37;;;;;;;0.40;0.40;;;2.20;99.90;;;;;;6267284;22;20182;-88
2023/12/22 03:49:07;;;;;;;0.50;0.50;;;2.20;99.90;;;;;;6291812;22;20198;-89
2023/12/22 03:51:45;;;;;;;0.40;0.40;;;2.20;99.90;;;;;;6269603;22;20223;-86
2023/12/22 03:54:27;;;;;;;;;;;;;;;;;;;;;
2023/12/22 03:57:08;;;;;;;0.40;0.40;;;2.30;99.90;;;;;;6294707;22;20186;-89
2023/12/22 03:59:51;;;;;;;0.45;0.45;;;2.30;99.90;;;;;;6289833;22;20179;-88
2023/12/22 04:05:07;;;;;;;0.40;0.40;;;2.60;99.90;;;;;;6208147;22;20367;-89
2023/12/22 04:07:51;;;;;;;0.50;0.50;;;2.70;99.90;;;;;;6240652;23;20176;-86
2023/12/22 04:13:08;;;;;;;1.80;0.80;;;2.80;99.90;;;;;;6241785;22;20194;-86
2023/12/22 04:15:44;;;;;;;0.60;0.60;;;2.80;99.90;;;;;;6270655;22;20183;-88
2023/12/22 04:18:19;;;;;;;0.70;0.70;;;2.70;99.90;;;;;;6268303;22;20150;-88
2023/12/22 04:20:53;;;;;;;0.70;0.70;;;2.90;99.90;;;;;;6245973;22;20147;-89
2023/12/22 04:23:39;;;;;;;0.77;0.75;;;3.10;99.90;;;;;;6295327;22;20189;-89
2023/12/22 04:26:16;;;;;;;0.70;0.70;;;2.90;99.90;;;;;;6267077;22;20222;-89
2023/12/22 04:28:45;;;;;;;3.65;1.55;;;3.10;99.90;;;;;;6268900;22;20155;-88
2023/12/22 04:31:19;;;;;;;0.47;0.47;;;3.10;99.90;;;;;;6298734;22;20187;-89
2023/12/22 04:33:50;;;;;;;0.40;0.40;;;3.00;99.90;;;;;;6298100;22;20182;-88
2023/12/22 04:38:55;;;;;;;1.30;1.30;;;3.10;99.90;;;;;;6281285;22;20212;-85
2023/12/22 04:41:29;;;;;;;0.43;0.43;;;2.90;99.90;;;;;;6300357;22;20190;-85
2023/12/22 04:43:58;;;;;;;0.40;0.40;;;3.00;99.90;;;;;;6304082;22;20158;-87
2023/12/22 04:46:27;;;;;;;0.50;0.50;;;3.00;99.90;;;;;;6301794;22;20182;-89
2023/12/22 04:49:01;;;;;;;0.50;0.50;;;3.10;99.90;;;;;;6297005;22;20194;-85
2023/12/22 04:51:34;;;;;;;0.40;0.40;;;3.00;99.90;;;;;;6302131;22;20190;-86
2023/12/22 04:54:03;;;;;;;0.98;0.98;;;3.50;99.90;;;;;;6298643;22;20191;-89
2023/12/22 04:56:40;;;;;;;0.60;0.60;;;3.20;99.90;;;;;;6303090;22;20198;-86
2023/12/22 04:59:20;;;;;;;0.95;0.95;;;3.10;99.90;;;;;;6251807;22;20525;-89
2023/12/22 05:02:02;;;;;;;0.50;0.50;;;3.10;99.90;;;;;;6301395;22;20174;-88
2023/12/22 05:04:48;;;;;;;0.47;0.47;;;2.90;99.90;;;;;;6256905;22;20173;-84
2023/12/22 05:07:18;;;;;;;0.40;0.40;;;3.00;99.90;;;;;;6301991;22;20150;-86
2023/12/22 05:09:56;;;;;;;0.60;0.60;;;3.20;99.90;;;;;;6302553;22;20178;-86
2023/12/22 05:12:30;;;;;;;0.50;0.50;;;3.00;99.90;;;;;;6276623;22;20165;-88
2023/12/22 05:15:02;;;;;;;0.40;0.40;;;3.00;99.90;;;;;;6302361;22;20222;-84
2023/12/22 05:17:32;;;;;;;0.45;0.45;;;3.00;99.90;;;;;;6301830;22;20234;-87
2023/12/22 05:20:06;;;;;;;0.90;0.90;;;3.00;99.90;;;;;;6301536;22;20231;-86
2023/12/22 05:22:43;;;;;;;0.73;0.73;;;3.10;99.90;;;;;;6302229;22;20173;-85
2023/12/22 05:25:17;;;;;;;0.40;0.40;;;3.10;99.90;;;;;;6277801;22;20151;-85
2023/12/22 05:28:21;;;;;;;1.95;1.85;;;3.00;99.90;;;;;;6302783;22;20171;-87
2023/12/22 05:30:54;;;;;;;0.50;0.50;;;3.10;99.90;;;;;;6271591;22;20234;-86
2023/12/22 05:33:22;;;;;;;0.63;0.63;;;3.10;99.90;;;;;;6278089;22;20152;-85
2023/12/22 05:36:03;;;;;;;0.40;0.40;;;2.90;99.90;;;;;;6303312;22;20159;-86
2023/12/22 05:38:31;;;;;;;1.45;1.35;;;3.00;99.90;;;;;;6275935;22;20151;-87
2023/12/22 05:41:03;;;;;;;1.55;1.55;;;3.70;99.90;;;;;;6292161;22;20160;-82
2023/12/22 05:43:50;;;;;;;0.40;0.40;;;3.00;99.90;;;;;;6273093;22;20160;-88
2023/12/22 05:46:33;;;;;;;0.50;0.50;;;2.90;99.90;;;;;;6271846;22;20155;-84
2023/12/22 05:49:12;;;;;;;0.75;0.75;;;2.30;99.90;;;;;;6293432;22;20158;-84
2023/12/22 05:51:51;;;;;;;3.22;3.05;;;2.80;99.90;;;;;;6266799;22;20193;-88
2023/12/22 05:54:21;;;;;;;0.40;0.40;;;3.00;99.90;;;;;;6292978;22;20425;-88
2023/12/22 05:56:55;;;;;;;1.40;1.40;;;3.10;99.90;;;;;;6266303;22;20574;-86
2023/12/22 05:59:48;;;;;;;0.50;0.50;;;2.90;99.90;;;;;;6267915;22;20205;-85
2023/12/22 06:02:25;;;;;;;0.40;0.40;;;2.80;99.90;;;;;;6267776;22;20174;-85
2023/12/22 06:04:58;;;;;;;0.50;0.50;;;2.90;99.90;;;;;;6288943;22;20236;-88
2023/12/22 06:07:35;;;;;;;1.08;1.08;;;2.80;99.90;;;;;;6292507;22;20151;-87
2023/12/22 06:10:03;;;;;;;0.40;0.40;;;2.80;99.90;;;;;;6289020;22;20235;-81
2023/12/22 06:12:30;;;;;;;2.45;2.35;;;2.80;99.90;;;;;;6261804;22;20194;-84
2023/12/22 06:14:58;;;;;;;0.50;0.50;;;2.90;99.90;;;;;;6288538;22;20210;-84
2023/12/22 06:17:28;;;;;;;21.23;1.38;;;2.80;99.90;;;;;;6288848;22;20179;-84
2023/12/22 06:19:57;;;;;;;0.50;0.50;;;2.80;99.90;;;;;;6260777;22;20202;-84
2023/12/22 06:22:29;;;;;;;1.95;1.85;;;2.80;99.90;;;;;;6291688;22;20171;-85
2023/12/22 06:24:58;;;;;;;0.40;0.40;;;2.90;99.90;;;;;;6263062;22;20182;-83
2023/12/22 06:27:32;;;;;;;0.50;0.50;;;2.90;99.90;;;;;;6267128;22;20182;-87
2023/12/22 06:30:10;;;;;;;1.40;1.17;;;2.70;99.90;;;;;;6268392;22;20155;-89
2023/12/22 06:33:05;;;;;;;0.40;0.40;;;2.60;99.90;;;;;;6274644;22;20180;-86
2023/12/22 06:35:47;;;;;;;0.50;0.50;;;2.60;99.90;;;;;;6293623;22;20175;-82
2023/12/22 06:38:26;;;;;;;0.47;0.47;;;2.60;99.90;;;;;;6264799;22;20212;-84
2023/12/22 06:41:01;;;;;;;0.60;0.60;;;2.80;99.90;;;;;;6291237;22;20159;-86
2023/12/22 06:43:30;;;;;;;2.05;1.48;;;2.70;99.90;;;;;;6291407;22;20238;-85
2023/12/22 06:46:14;;;;;;;0.52;0.52;;;2.70;99.90;;;;;;6297845;22;20163;-84
2023/12/22 06:49:04;;;;;;;5.43;3.35;;;2.50;99.90;;;;;;6280108;22;20166;-87
2023/12/22 06:51:37;;;;;;;0.40;0.40;;;2.50;99.90;;;;;;6251457;22;20225;-85
2023/12/22 06:54:08;;;;;;;0.40;0.40;;;2.50;99.90;;;;;;6296372;22;20219;-85
2023/12/22 06:56:46;;;;;;;0.60;0.60;;;2.50;99.90;;;;;;6278717;22;20162;-84
2023/12/22 06:59:32;;;;;;;0.60;0.60;;;2.50;99.90;;;;;;6303884;22;20159;-89
2023/12/22 07:02:27;;;;;;;4.55;1.30;;;2.50;99.90;;;;;;6273079;22;20162;-86
2023/12/22 07:05:36;;;;;;;;;;;;;;;;;;;;;
2023/12/22 07:08:13;;;;;;;1.02;1.02;;;2.60;99.90;;;;;;6294549;22;20194;-86
2023/12/22 07:13:41;;;;;;;7.25;2.90;;;2.60;99.90;;;;;;6285533;22;20539;-86
2023/12/22 07:16:16;;;;;;;0.50;0.50;;;2.80;99.90;;;;;;6269903;22;20162;-87
2023/12/22 07:18:47;;;;;;;0.70;0.70;;;2.60;99.90;;;;;;6266503;22;20165;-87
2023/12/22 07:21:54;;;;;;;0.77;0.77;;;2.70;99.90;;;;;;6246414;22;20178;-88
2023/12/22 07:24:46;;;;;;;0.70;0.70;;;3.00;99.90;;;;;;6262913;22;20195;-89
2023/12/22 07:27:25;;;;;;;1.08;1.05;;;3.00;99.90;;;;;;6273322;22;20174;-85
2023/12/22 07:30:08;;;;;;;1.13;1.13;;;3.10;99.90;;;;;;6302680;22;20151;-84
2023/12/22 07:32:40;;;;;;;0.40;0.40;;;3.20;99.90;;;;;;6303586;22;20181;-82
2023/12/22 07:35:15;;;;;;;1.38;1.35;;;3.30;99.90;;;;;;6303107;22;20179;-85
2023/12/22 07:37:51;;;;;;;0.50;0.50;;;3.40;99.90;;;;;;6155497;23;20223;-85
2023/12/22 07:40:32;;;;;;;0.50;0.50;;;3.40;99.90;;;;;;6169555;23;20213;-87
2023/12/22 07:43:04;;;;;;;0.50;0.50;;;3.40;99.90;;;;;;6165393;23;20229;-86
2023/12/22 07:45:39;;;;;;;0.50;0.50;;;3.30;99.90;;;;;;6165918;23;20178;-85
2023/12/22 07:48:13;;;;;;;0.50;0.50;;;3.30;99.90;;;;;;6165971;23;20549;-83
2023/12/22 07:50:42;;;;;;;0.50;0.50;;;3.30;99.90;;;;;;6142119;23;20534;-84
2023/12/22 07:53:09;;;;;;;13.98;1.30;;;3.30;99.90;;;;;;6166940;23;20175;-86
2023/12/22 07:55:42;;;;;;;0.45;0.45;;;3.30;99.90;;;;;;6204769;22;20209;-87
2023/12/22 07:58:11;;;;;;;3.03;2.72;;;3.40;99.90;;;;;;6288841;22;20162;-84
2023/12/22 08:00:39;;;;;;;0.40;0.40;;;3.50;99.90;;;;;;6291617;22;20167;-86
2023/12/22 08:03:05;;;;;;;0.50;0.50;;;3.50;99.90;;;;;;6265508;22;20218;-86
2023/12/22 08:05:41;;;;;;;2.45;2.25;;;3.50;99.90;;;;;;6288229;22;20221;-86
2023/12/22 08:08:09;;;;;;;0.50;0.50;;;3.50;99.90;;;;;;6291378;22;20240;-86
2023/12/22 08:10:36;;;;;;;0.80;0.80;;;3.50;99.90;;;;;;6286940;22;20199;-84
2023/12/22 08:13:03;;;;;;;0.50;0.50;;;3.60;99.90;;;;;;6291101;22;20179;-85
2023/12/22 08:15:33;;;;;;;0.50;0.50;;;3.60;99.90;;;;;;6291239;22;20171;-87
2023/12/22 08:18:03;;;;;;;0.50;0.50;;;3.60;99.90;;;;;;6239699;22;20167;-88
2023/12/22 08:20:33;;;;;;;6.07;1.45;;;3.60;99.90;;;;;;6291776;22;20190;-84
2023/12/22 08:23:07;;;;;;;0.70;0.70;;;3.80;99.90;;;;;;6289352;22;20185;-84
2023/12/22 08:25:41;;;;;;;1.45;1.35;;;3.60;99.90;;;;;;6288263;22;20174;-87
2023/12/22 08:28:14;;;;;;;0.70;0.70;;;3.50;99.90;;;;;;6260403;22;20406;-86
2023/12/22 08:30:42;;;;;;;1.08;1.08;;;3.40;99.90;;;;;;6260340;22;20218;-89
2023/12/22 08:33:23;;;;;;;0.60;0.60;;;3.50;99.90;;;;;;6265397;22;20202;-85
2023/12/22 08:35:53;;;;;;;1.52;1.38;;;3.50;99.90;;;;;;6299285;22;20167;-85
2023/12/22 08:38:25;;;;;;;0.50;0.50;;;3.90;99.90;;;;;;6266334;22;20171;-87
2023/12/22 08:41:00;;;;;;;0.50;0.50;;;4.00;99.90;;;;;;6288583;22;20166;-86
2023/12/22 08:43:32;;;;;;;0.50;0.50;;;4.00;99.90;;;;;;6291748;22;20171;-86
2023/12/22 08:45:59;;;;;;;0.50;0.50;;;3.90;99.90;;;;;;6289591;22;20178;-88
2023/12/22 08:48:28;;;;;;;3.65;1.50;;;3.90;99.90;;;;;;6262135;22;20156;-84
2023/12/22 08:51:20;;;;;;;0.60;0.60;;;3.80;99.90;;;;;;6289223;22;20190;-87
2023/12/22 08:53:52;;;;;;;0.50;0.50;;;3.80;99.90;;;;;;6266034;22;20222;-86
2023/12/22 08:56:21;;;;;;;0.50;0.50;;;3.70;99.90;;;;;;6287785;22;20171;-89
2023/12/22 08:58:52;;;;;;;0.80;0.80;;;3.70;99.90;;;;;;6288127;22;20175;-89
2023/12/22 09:01:22;;;;;;;0.50;0.50;;;3.60;99.90;;;;;;6287878;22;20171;-87
2023/12/22 09:03:52;;;;;;;2.85;2.60;;;3.70;99.90;;;;;;6262898;22;20218;-88
2023/12/22 09:06:21;;;;;;;1.88;1.77;;;3.40;99.90;;;;;;6288692;22;20185;-87
2023/12/22 09:08:49;;;;;;;0.50;0.50;;;3.00;99.90;;;;;;6263414;22;20536;-86
2023/12/22 09:11:22;;;;;;;0.93;0.93;;;2.80;99.90;;;;;;6287422;22;20175;-85
2023/12/22 09:13:49;;;;;;;0.50;0.50;;;2.70;99.90;;;;;;6286585;22;20183;-83
2023/12/22 09:16:26;;;;;;;0.50;0.50;;;2.70;99.90;;;;;;6286985;22;20220;-86
2023/12/22 09:18:53;;;;;;;0.50;0.50;;;2.70;99.90;;;;;;6285729;22;20233;-89
2023/12/22 09:21:26;;;;;;;0.50;0.50;;;2.80;99.90;;;;;;6261670;22;20222;-86
2023/12/22 09:24:00;;;;;;;1.30;1.15;;;3.00;99.90;;;;;;6284530;22;20178;-88
2023/12/22 09:26:27;;;;;;;0.50;0.50;;;3.70;99.90;;;;;;6290646;22;20504;-87
2023/12/22 09:28:56;;;;;;;0.60;0.60;;;2.60;99.90;;;;;;6266864;22;20186;-87
2023/12/22 09:31:29;;;;;;;0.50;0.50;;;3.30;99.90;;;;;;6294683;22;20193;-86
2023/12/22 09:34:00;;;;;;;0.50;0.50;;;3.40;99.90;;;;;;6273259;22;20257;-87
2023/12/22 09:36:33;;;;;;;0.50;0.50;;;3.90;99.90;;;;;;6302601;22;20155;-86
2023/12/22 09:39:00;;;;;;;0.50;0.50;;;3.80;99.90;;;;;;6275002;22;20238;-84
2023/12/22 09:41:31;;;;;;;0.82;0.82;;;4.20;99.90;;;;;;6298333;22;20463;-87
2023/12/22 09:44:00;;;;;;;0.50;0.50;;;3.60;99.90;;;;;;6292253;22;20240;-86
2023/12/22 09:46:31;;;;;;;0.60;0.60;;;3.80;99.90;;;;;;6265389;22;20265;-84
2023/12/22 09:49:02;;;;;;;0.50;0.50;;;4.10;99.90;;;;;;6290550;22;20187;-85
2023/12/22 09:51:43;;;;;;;2.05;1.40;;;4.70;99.90;;;;;;6291000;22;20193;-85
2023/12/22 09:54:17;;;;;;;0.50;0.50;;;4.70;99.90;;;;;;6290241;22;20224;-87
2023/12/22 09:56:52;;;;;;;1.45;1.45;;;4.60;99.90;;;;;;6268421;22;20167;-85
2023/12/22 09:59:24;;;;;;;0.50;0.50;;;4.30;99.90;;;;;;6290848;22;20175;-86
2023/12/22 10:01:57;;;;;;;0.50;0.50;;;4.40;99.90;;;;;;6290259;22;20174;-86
2023/12/22 10:04:25;;;;;;;0.40;0.40;;;4.50;99.90;;;;;;6265340;22;20633;-87
2023/12/22 10:07:00;;;;;;;0.50;0.50;;;4.40;99.90;;;;;;6292591;22;20488;-88
2023/12/22 10:09:32;;;;;;;0.60;0.60;;;4.40;99.90;;;;;;6239998;22;20178;-87
2023/12/22 10:12:11;;;;;;;0.50;0.50;;;4.50;99.90;;;;;;6262581;22;20198;-86
2023/12/22 10:14:49;;;;;;;2.70;2.47;;;4.40;99.90;;;;;;6292056;22;20233;-86
2023/12/22 10:17:27;;;;;;;0.43;0.43;;;4.40;99.90;;;;;;6263262;22;20219;-84
2023/12/22 10:20:07;;;;;;;0.50;0.50;;;4.60;99.90;;;;;;6290678;22;20174;-87
2023/12/22 10:22:38;;;;;;;0.60;0.60;;;4.60;99.90;;;;;;6289343;22;20179;-85
2023/12/22 10:25:27;;;;;;;0.50;0.50;;;4.60;99.90;;;;;;6291753;22;20239;-85
2023/12/22 10:28:02;;;;;;;0.50;0.50;;;4.70;99.90;;;;;;6267075;22;20170;-85
2023/12/22 10:30:35;;;;;;;0.50;0.50;;;4.80;99.90;;;;;;6264356;22;20175;-86
2023/12/22 10:33:06;;;;;;;0.70;0.70;;;4.80;99.90;;;;;;6267974;22;20208;-87
2023/12/22 10:35:34;;;;;;;0.50;0.50;;;4.70;99.90;;;;;;6266715;22;20175;-86
2023/12/22 10:38:12;;;;;;;0.50;0.50;;;4.70;99.90;;;;;;6290824;22;20151;-85
2023/12/22 10:40:45;;;;;;;0.50;0.50;;;4.50;99.90;;;;;;6291483;22;20221;-87
2023/12/22 10:43:13;;;;;;;0.60;0.60;;;4.70;99.90;;;;;;6291495;22;20343;-85
2023/12/22 10:45:46;;;;;;;0.60;0.60;;;5.00;99.90;;;;;;6263872;22;20179;-87
2023/12/22 10:48:15;;;;;;;0.50;0.50;;;4.90;99.90;;;;;;6290684;22;20163;-83
2023/12/22 10:50:48;;;;;;;0.60;0.60;;;4.80;99.90;;;;;;6263151;22;20258;-85
2023/12/22 10:53:23;;;;;;;0.50;0.50;;;4.70;99.90;;;;;;6289162;22;20199;-85
2023/12/22 10:55:57;;;;;;;0.50;0.50;;;4.80;99.90;;;;;;6264932;22;20155;-87
2023/12/22 10:58:28;;;;;;;0.50;0.50;;;5.00;99.90;;;;;;6263768;22;20167;-87
2023/12/22 11:01:04;;;;;;;0.60;0.60;;;5.00;99.90;;;;;;6264928;22;20156;-86
2023/12/22 11:03:58;;;;;;;0.50;0.50;;;4.90;99.90;;;;;;6281676;22;20187;-85
2023/12/22 11:06:41;;;;;;;0.50;0.50;;;4.90;99.90;;;;;;6264632;22;20194;-85
2023/12/22 11:09:17;;;;;;;1.13;1.13;;;4.70;99.90;;;;;;6264507;22;20187;-87
2023/12/22 11:11:55;;;;;;;0.50;0.50;;;4.50;99.90;;;;;;6265885;22;20194;-87
2023/12/22 11:14:41;;;;;;;0.50;0.50;;;4.40;99.90;;;;;;6291294;22;20163;-84
2023/12/22 11:17:13;;;;;;;0.60;0.60;;;4.40;99.90;;;;;;6290061;22;20186;-85
2023/12/22 11:19:42;;;;;;;0.60;0.60;;;4.40;99.90;;;;;;6290715;22;20167;-89
2023/12/22 11:22:44;;;;;;;0.50;0.50;;;4.40;99.90;;;;;;6291047;22;20226;-87
2023/12/22 11:25:28;;;;;;;1.23;1.13;;;4.40;99.90;;;;;;6293662;22;20238;-87
2023/12/22 11:27:57;;;;;;;0.50;0.50;;;4.50;99.90;;;;;;6264854;22;20179;-86
2023/12/22 11:30:30;;;;;;;0.70;0.70;;;4.60;99.90;;;;;;6265021;22;20164;-87
2023/12/22 11:32:58;;;;;;;0.60;0.60;;;4.30;99.90;;;;;;6293114;22;20198;-88
2023/12/22 11:35:27;;;;;;;0.50;0.50;;;4.50;99.90;;;;;;6291599;22;20175;-87
2023/12/22 11:38:02;;;;;;;0.50;0.50;;;4.30;99.90;;;;;;6290698;22;20175;-87
2023/12/22 11:40:32;;;;;;;0.50;0.50;;;4.40;99.90;;;;;;6263771;22;20229;-86
2023/12/22 11:43:01;;;;;;;2.45;1.67;;;4.40;99.90;;;;;;6291269;22;20183;-86
2023/12/22 11:45:33;;;;;;;0.50;0.50;;;4.50;99.90;;;;;;6291843;22;20198;-87
2023/12/22 11:48:09;;;;;;;2.78;1.60;;;4.60;99.90;;;;;;6289093;22;20265;-85
2023/12/22 11:50:39;;;;;;;0.50;0.50;;;4.80;99.90;;;;;;6241400;22;20163;-86
2023/12/22 11:53:32;;;;;;;0.50;0.50;;;5.10;99.90;;;;;;6290245;22;20743;-88
2023/12/22 11:56:05;;;;;;;0.50;0.50;;;5.10;99.90;;;;;;6292816;22;20246;-86
2023/12/22 11:58:38;;;;;;;0.50;0.50;;;5.30;99.90;;;;;;6298275;22;20220;-86
2023/12/22 12:01:09;;;;;;;1.95;1.02;;;5.30;99.90;;;;;;6303048;22;20178;-86
2023/12/22 12:04:02;;;;;;;0.60;0.60;;;5.20;99.90;;;;;;6302301;22;20170;-85
2023/12/22 12:06:30;;;;;;;0.50;0.50;;;5.10;99.90;;;;;;6273079;22;20226;-87
2023/12/22 12:09:03;;;;;;;0.50;0.50;;;5.00;99.90;;;;;;6294946;22;20722;-86
2023/12/22 12:11:54;;;;;;;0.60;0.60;;;4.90;99.90;;;;;;6298182;22;20174;-84
2023/12/22 12:14:32;;;;;;;0.50;0.50;;;4.90;99.90;;;;;;6294816;22;20542;-87
2023/12/22 12:17:10;;;;;;;0.50;0.50;;;4.80;99.90;;;;;;6269539;22;20359;-85
2023/12/22 12:19:41;;;;;;;0.57;0.57;;;5.00;99.90;;;;;;6241544;22;20174;-87
2023/12/22 12:22:24;;;;;;;0.50;0.50;;;5.30;99.90;;;;;;6296182;22;20159;-85
2023/12/22 12:25:02;;;;;;;0.50;0.50;;;5.10;99.90;;;;;;6297452;22;20200;-86
2023/12/22 12:27:34;;;;;;;1.05;1.05;;;5.20;99.90;;;;;;6297187;22;20258;-89
2023/12/22 12:30:17;;;;;;;0.50;0.50;;;5.20;99.90;;;;;;6292606;22;20193;-85
2023/12/22 12:33:00;;;;;;;0.50;0.50;;;5.20;99.90;;;;;;6293114;22;20194;-85
2023/12/22 12:35:48;;;;;;;0.50;0.50;;;5.20;99.90;;;;;;6269301;22;20197;-85
2023/12/22 12:38:47;;;;;;;0.50;0.50;;;5.20;99.90;;;;;;6264639;22;20166;-85
2023/12/22 12:41:16;;;;;;;0.60;0.60;;;5.30;99.90;;;;;;6297837;22;20181;-83
2023/12/22 12:43:49;;;;;;;0.50;0.50;;;5.10;99.90;;;;;;6290217;22;20772;-86
2023/12/22 12:46:42;;;;;;;0.50;0.50;;;5.10;99.90;;;;;;6286690;22;20178;-86
2023/12/22 12:49:11;;;;;;;0.60;0.60;;;5.00;99.90;;;;;;6290703;22;20209;-87
2023/12/22 12:51:49;;;;;;;0.60;0.60;;;4.90;99.90;;;;;;6266582;22;20167;-86
2023/12/22 12:54:20;;;;;;;1.33;1.33;;;4.80;99.90;;;;;;6293759;22;20166;-88
2023/12/22 12:56:48;;;;;;;0.60;0.60;;;5.00;99.90;;;;;;6296123;22;20160;-89
2023/12/22 12:59:20;;;;;;;0.50;0.50;;;4.90;99.90;;;;;;6266952;22;20239;-89
2023/12/22 13:01:48;;;;;;;0.50;0.50;;;4.90;99.90;;;;;;6268094;22;20197;-87
2023/12/22 13:04:43;;;;;;;0.60;0.60;;;4.90;99.90;;;;;;6269719;22;20193;-86
2023/12/22 13:07:25;;;;;;;0.60;0.60;;;5.00;99.90;;;;;;6296203;22;20183;-87
2023/12/22 13:09:56;;;;;;;0.93;0.93;;;4.90;99.90;;;;;;6267427;22;20455;-90
2023/12/22 13:12:24;;;;;;;0.60;0.60;;;4.90;99.90;;;;;;6266030;22;20217;-86
2023/12/22 13:15:02;;;;;;;0.50;0.50;;;4.90;99.90;;;;;;6266543;22;20186;-89
2023/12/22 13:17:40;;;;;;;0.60;0.60;;;4.90;99.90;;;;;;6266516;22;20162;-88
2023/12/22 13:20:12;;;;;;;0.50;0.50;;;4.90;99.90;;;;;;6292717;22;20195;-85
2023/12/22 13:22:41;;;;;;;1.00;1.00;;;5.00;99.90;;;;;;6292422;22;20174;-90
2023/12/22 13:25:09;;;;;;;0.50;0.50;;;4.90;99.90;;;;;;6268368;22;20234;-89
2023/12/22 13:28:00;;;;;;;0.50;0.50;;;4.90;99.90;;;;;;6292232;22;20159;-88
2023/12/22 13:30:40;;;;;;;0.50;0.50;;;4.90;99.90;;;;;;6285352;22;20230;-88
2023/12/22 13:33:10;;;;;;;0.50;0.50;;;4.90;99.90;;;;;;6292983;22;20178;-89
2023/12/22 13:35:38;;;;;;;0.50;0.50;;;4.80;99.90;;;;;;6293189;22;20168;-89
2023/12/22 13:38:10;;;;;;;1.02;1.02;;;4.80;99.90;;;;;;6291661;22;20160;-87
2023/12/22 13:40:45;;;;;;;1.15;1.15;;;4.60;99.90;;;;;;6293133;22;20225;-84
2023/12/22 13:43:17;;;;;;;0.60;0.60;;;4.60;99.90;;;;;;6269631;22;20182;-90
2023/12/22 13:45:51;;;;;;;0.60;0.60;;;4.60;99.90;;;;;;6268288;22;20198;-86
2023/12/22 13:48:24;;;;;;;0.50;0.50;;;4.60;99.90;;;;;;6242570;22;20170;-85
2023/12/22 13:50:59;;;;;;;0.50;0.50;;;4.70;99.90;;;;;;6292099;22;20174;-86
2023/12/22 13:53:27;;;;;;;0.50;0.50;;;4.50;99.90;;;;;;6296633;22;20186;-88
2023/12/22 13:56:01;;;;;;;1.50;1.20;;;4.50;99.90;;;;;;6266218;22;20184;-87
2023/12/22 13:58:53;;;;;;;0.60;0.60;;;4.50;99.90;;;;;;6272346;22;20245;-88
2023/12/22 14:01:23;;;;;;;0.50;0.50;;;4.40;99.90;;;;;;6293031;22;20182;-89
2023/12/22 14:03:57;;;;;;;0.50;0.50;;;4.30;99.90;;;;;;6294710;22;20279;-88
2023/12/22 14:06:28;;;;;;;1.13;0.82;;;4.20;99.90;;;;;;6292135;22;20235;-87